sensor_id;sensor_type;location;lat;lon;timestamp;P1;durP1;ratioP1;P2;durP2;ratioP2
68633;SDS011;55625;47.072;22.192;2023-07-13T00:01:51;6.55;;;2.70;;
68633;SDS011;55625;47.072;22.192;2023-07-13T00:04:18;5.57;;;2.75;;
68633;SDS011;55625;47.072;22.192;2023-07-13T00:06:48;4.78;;;2.50;;
68633;SDS011;55625;47.072;22.192;2023-07-13T00:09:15;4.57;;;3.27;;
68633;SDS011;55625;47.072;22.192;2023-07-13T00:11:43;4.35;;;2.58;;
68633;SDS011;55625;47.072;22.192;2023-07-13T00:14:10;4.28;;;2.72;;
68633;SDS011;55625;47.072;22.192;2023-07-13T00:16:36;7.32;;;3.05;;
68633;SDS011;55625;47.072;22.192;2023-07-13T00:19:05;4.07;;;2.47;;
68633;SDS011;55625;47.072;22.192;2023-07-13T00:21:31;5.77;;;3.17;;
68633;SDS011;55625;47.072;22.192;2023-07-13T00:23:57;7.07;;;3.83;;
68633;SDS011;55625;47.072;22.192;2023-07-13T00:26:25;5.53;;;3.50;;
68633;SDS011;55625;47.072;22.192;2023-07-13T00:28:51;4.93;;;3.38;;
68633;SDS011;55625;47.072;22.192;2023-07-13T00:31:17;3.97;;;1.93;;
68633;SDS011;55625;47.072;22.192;2023-07-13T00:33:43;8.35;;;3.13;;
68633;SDS011;55625;47.072;22.192;2023-07-13T00:36:09;5.55;;;2.58;;
68633;SDS011;55625;47.072;22.192;2023-07-13T00:38:35;5.55;;;3.15;;
68633;SDS011;55625;47.072;22.192;2023-07-13T00:41:02;5.07;;;3.07;;
68633;SDS011;55625;47.072;22.192;2023-07-13T00:43:29;4.38;;;3.03;;
68633;SDS011;55625;47.072;22.192;2023-07-13T00:48:22;5.70;;;2.97;;
68633;SDS011;55625;47.072;22.192;2023-07-13T00:50:55;4.60;;;2.50;;
68633;SDS011;55625;47.072;22.192;2023-07-13T00:53:26;5.93;;;3.55;;
68633;SDS011;55625;47.072;22.192;2023-07-13T00:55:55;5.15;;;2.80;;
68633;SDS011;55625;47.072;22.192;2023-07-13T00:58:23;6.88;;;2.78;;
68633;SDS011;55625;47.072;22.192;2023-07-13T01:00:52;6.28;;;3.30;;
68633;SDS011;55625;47.072;22.192;2023-07-13T01:03:18;7.17;;;4.10;;
68633;SDS011;55625;47.072;22.192;2023-07-13T01:05:44;8.25;;;2.88;;
68633;SDS011;55625;47.072;22.192;2023-07-13T01:08:14;5.38;;;3.50;;
68633;SDS011;55625;47.072;22.192;2023-07-13T01:10:40;4.13;;;2.43;;
68633;SDS011;55625;47.072;22.192;2023-07-13T01:13:06;4.18;;;2.47;;
68633;SDS011;55625;47.072;22.192;2023-07-13T01:15:39;6.13;;;3.22;;
68633;SDS011;55625;47.072;22.192;2023-07-13T01:18:18;5.93;;;3.08;;
68633;SDS011;55625;47.072;22.192;2023-07-13T01:20:55;6.37;;;2.73;;
68633;SDS011;55625;47.072;22.192;2023-07-13T01:23:22;5.75;;;2.95;;
68633;SDS011;55625;47.072;22.192;2023-07-13T01:25:49;6.15;;;2.75;;
68633;SDS011;55625;47.072;22.192;2023-07-13T01:28:17;5.28;;;2.78;;
68633;SDS011;55625;47.072;22.192;2023-07-13T01:30:44;4.82;;;3.13;;
68633;SDS011;55625;47.072;22.192;2023-07-13T01:33:16;7.63;;;3.40;;
68633;SDS011;55625;47.072;22.192;2023-07-13T01:35:43;5.38;;;2.35;;
68633;SDS011;55625;47.072;22.192;2023-07-13T01:38:11;5.03;;;3.10;;
68633;SDS011;55625;47.072;22.192;2023-07-13T01:40:39;5.32;;;2.75;;
68633;SDS011;55625;47.072;22.192;2023-07-13T01:43:05;4.83;;;3.47;;
68633;SDS011;55625;47.072;22.192;2023-07-13T01:45:31;4.70;;;3.23;;
68633;SDS011;55625;47.072;22.192;2023-07-13T01:47:57;3.80;;;2.50;;
68633;SDS011;55625;47.072;22.192;2023-07-13T01:50:24;4.38;;;3.33;;
68633;SDS011;55625;47.072;22.192;2023-07-13T01:52:51;5.15;;;2.92;;
68633;SDS011;55625;47.072;22.192;2023-07-13T01:55:17;7.33;;;4.10;;
68633;SDS011;55625;47.072;22.192;2023-07-13T01:57:42;7.00;;;3.38;;
68633;SDS011;55625;47.072;22.192;2023-07-13T02:00:09;5.80;;;3.90;;
68633;SDS011;55625;47.072;22.192;2023-07-13T02:02:36;4.97;;;2.90;;
68633;SDS011;55625;47.072;22.192;2023-07-13T02:05:02;4.70;;;2.60;;
68633;SDS011;55625;47.072;22.192;2023-07-13T02:07:28;6.25;;;2.67;;
68633;SDS011;55625;47.072;22.192;2023-07-13T02:09:54;9.30;;;3.53;;
68633;SDS011;55625;47.072;22.192;2023-07-13T02:12:19;5.43;;;3.67;;
68633;SDS011;55625;47.072;22.192;2023-07-13T02:14:45;4.10;;;2.63;;
68633;SDS011;55625;47.072;22.192;2023-07-13T02:17:11;5.00;;;2.53;;
68633;SDS011;55625;47.072;22.192;2023-07-13T02:19:38;4.13;;;3.08;;
68633;SDS011;55625;47.072;22.192;2023-07-13T02:22:04;4.07;;;1.98;;
68633;SDS011;55625;47.072;22.192;2023-07-13T02:24:30;4.33;;;3.00;;
68633;SDS011;55625;47.072;22.192;2023-07-13T02:26:56;4.63;;;2.43;;
68633;SDS011;55625;47.072;22.192;2023-07-13T02:29:22;9.43;;;2.90;;
68633;SDS011;55625;47.072;22.192;2023-07-13T02:31:48;5.63;;;3.10;;
68633;SDS011;55625;47.072;22.192;2023-07-13T02:34:14;3.43;;;2.40;;
68633;SDS011;55625;47.072;22.192;2023-07-13T02:36:39;4.25;;;2.22;;
68633;SDS011;55625;47.072;22.192;2023-07-13T02:39:05;3.85;;;1.73;;
68633;SDS011;55625;47.072;22.192;2023-07-13T02:41:31;6.05;;;3.25;;
68633;SDS011;55625;47.072;22.192;2023-07-13T02:43:58;3.87;;;2.37;;
68633;SDS011;55625;47.072;22.192;2023-07-13T02:46:32;4.65;;;3.05;;
68633;SDS011;55625;47.072;22.192;2023-07-13T02:48:59;5.38;;;2.17;;
68633;SDS011;55625;47.072;22.192;2023-07-13T02:51:25;4.63;;;2.20;;
68633;SDS011;55625;47.072;22.192;2023-07-13T02:53:51;6.00;;;2.90;;
68633;SDS011;55625;47.072;22.192;2023-07-13T02:56:18;4.43;;;2.53;;
68633;SDS011;55625;47.072;22.192;2023-07-13T02:58:49;4.53;;;2.38;;
68633;SDS011;55625;47.072;22.192;2023-07-13T03:01:15;8.40;;;3.45;;
68633;SDS011;55625;47.072;22.192;2023-07-13T03:03:43;4.47;;;2.13;;
68633;SDS011;55625;47.072;22.192;2023-07-13T03:06:11;6.70;;;2.80;;
68633;SDS011;55625;47.072;22.192;2023-07-13T03:08:38;4.45;;;3.38;;
68633;SDS011;55625;47.072;22.192;2023-07-13T03:11:05;4.00;;;1.83;;
68633;SDS011;55625;47.072;22.192;2023-07-13T03:13:36;3.53;;;1.95;;
68633;SDS011;55625;47.072;22.192;2023-07-13T03:16:03;4.03;;;2.13;;
68633;SDS011;55625;47.072;22.192;2023-07-13T03:18:29;4.57;;;2.30;;
68633;SDS011;55625;47.072;22.192;2023-07-13T03:20:55;9.38;;;2.50;;
68633;SDS011;55625;47.072;22.192;2023-07-13T03:23:22;5.80;;;3.23;;
68633;SDS011;55625;47.072;22.192;2023-07-13T03:25:48;4.38;;;2.20;;
68633;SDS011;55625;47.072;22.192;2023-07-13T03:28:14;8.57;;;3.25;;
68633;SDS011;55625;47.072;22.192;2023-07-13T03:30:40;5.47;;;2.67;;
68633;SDS011;55625;47.072;22.192;2023-07-13T03:33:07;6.30;;;3.25;;
68633;SDS011;55625;47.072;22.192;2023-07-13T03:35:34;4.97;;;2.93;;
68633;SDS011;55625;47.072;22.192;2023-07-13T03:38:00;13.18;;;3.70;;
68633;SDS011;55625;47.072;22.192;2023-07-13T03:40:27;16.63;;;2.22;;
68633;SDS011;55625;47.072;22.192;2023-07-13T03:42:53;4.50;;;2.38;;
68633;SDS011;55625;47.072;22.192;2023-07-13T03:45:19;4.60;;;2.73;;
68633;SDS011;55625;47.072;22.192;2023-07-13T03:47:45;5.40;;;3.22;;
68633;SDS011;55625;47.072;22.192;2023-07-13T03:50:11;4.10;;;2.35;;
68633;SDS011;55625;47.072;22.192;2023-07-13T03:52:37;4.03;;;2.13;;
68633;SDS011;55625;47.072;22.192;2023-07-13T03:55:03;7.33;;;3.43;;
68633;SDS011;55625;47.072;22.192;2023-07-13T03:57:30;6.25;;;4.15;;
68633;SDS011;55625;47.072;22.192;2023-07-13T03:59:56;4.65;;;2.85;;
68633;SDS011;55625;47.072;22.192;2023-07-13T04:02:22;4.03;;;2.20;;
68633;SDS011;55625;47.072;22.192;2023-07-13T04:04:48;8.68;;;2.78;;
68633;SDS011;55625;47.072;22.192;2023-07-13T04:07:14;4.50;;;2.65;;
68633;SDS011;55625;47.072;22.192;2023-07-13T04:09:39;5.47;;;3.43;;
68633;SDS011;55625;47.072;22.192;2023-07-13T04:12:05;7.22;;;4.13;;
68633;SDS011;55625;47.072;22.192;2023-07-13T04:14:31;4.18;;;2.55;;
68633;SDS011;55625;47.072;22.192;2023-07-13T04:16:57;9.85;;;3.25;;
68633;SDS011;55625;47.072;22.192;2023-07-13T04:19:23;4.93;;;2.43;;
68633;SDS011;55625;47.072;22.192;2023-07-13T04:21:49;4.97;;;2.28;;
68633;SDS011;55625;47.072;22.192;2023-07-13T04:24:15;4.80;;;2.67;;
68633;SDS011;55625;47.072;22.192;2023-07-13T04:26:41;5.37;;;2.70;;
68633;SDS011;55625;47.072;22.192;2023-07-13T04:29:07;4.82;;;2.05;;
68633;SDS011;55625;47.072;22.192;2023-07-13T04:31:33;4.00;;;2.43;;
68633;SDS011;55625;47.072;22.192;2023-07-13T04:33:59;5.47;;;2.72;;
68633;SDS011;55625;47.072;22.192;2023-07-13T04:36:25;9.80;;;2.05;;
68633;SDS011;55625;47.072;22.192;2023-07-13T04:38:54;7.60;;;3.67;;
68633;SDS011;55625;47.072;22.192;2023-07-13T04:41:20;3.93;;;2.73;;
68633;SDS011;55625;47.072;22.192;2023-07-13T04:43:47;6.45;;;2.55;;
68633;SDS011;55625;47.072;22.192;2023-07-13T04:46:14;3.90;;;2.38;;
68633;SDS011;55625;47.072;22.192;2023-07-13T04:48:43;6.53;;;2.72;;
68633;SDS011;55625;47.072;22.192;2023-07-13T04:51:09;4.35;;;2.53;;
68633;SDS011;55625;47.072;22.192;2023-07-13T04:53:35;4.90;;;2.97;;
68633;SDS011;55625;47.072;22.192;2023-07-13T04:56:01;8.57;;;2.30;;
68633;SDS011;55625;47.072;22.192;2023-07-13T04:58:28;5.20;;;2.17;;
68633;SDS011;55625;47.072;22.192;2023-07-13T05:01:04;16.20;;;2.72;;
68633;SDS011;55625;47.072;22.192;2023-07-13T05:03:31;5.97;;;2.63;;
68633;SDS011;55625;47.072;22.192;2023-07-13T05:06:03;6.80;;;2.63;;
68633;SDS011;55625;47.072;22.192;2023-07-13T05:08:35;6.82;;;2.33;;
68633;SDS011;55625;47.072;22.192;2023-07-13T05:11:01;4.78;;;2.72;;
68633;SDS011;55625;47.072;22.192;2023-07-13T05:13:29;4.68;;;2.67;;
68633;SDS011;55625;47.072;22.192;2023-07-13T05:15:59;5.13;;;2.10;;
68633;SDS011;55625;47.072;22.192;2023-07-13T05:18:27;4.67;;;3.30;;
68633;SDS011;55625;47.072;22.192;2023-07-13T05:23:32;4.32;;;2.60;;
68633;SDS011;55625;47.072;22.192;2023-07-13T05:26:00;3.70;;;2.50;;
68633;SDS011;55625;47.072;22.192;2023-07-13T05:28:30;6.32;;;2.35;;
68633;SDS011;55625;47.072;22.192;2023-07-13T05:30:57;7.70;;;3.40;;
68633;SDS011;55625;47.072;22.192;2023-07-13T05:33:24;12.20;;;4.43;;
68633;SDS011;55625;47.072;22.192;2023-07-13T05:35:50;5.70;;;2.50;;
68633;SDS011;55625;47.072;22.192;2023-07-13T05:38:17;8.57;;;2.05;;
68633;SDS011;55625;47.072;22.192;2023-07-13T05:40:43;4.90;;;2.53;;
68633;SDS011;55625;47.072;22.192;2023-07-13T05:43:10;4.07;;;2.47;;
68633;SDS011;55625;47.072;22.192;2023-07-13T05:45:36;4.82;;;1.98;;
68633;SDS011;55625;47.072;22.192;2023-07-13T05:48:02;4.38;;;2.38;;
68633;SDS011;55625;47.072;22.192;2023-07-13T05:50:28;5.67;;;3.13;;
68633;SDS011;55625;47.072;22.192;2023-07-13T05:52:53;6.80;;;2.25;;
68633;SDS011;55625;47.072;22.192;2023-07-13T05:55:20;6.47;;;3.00;;
68633;SDS011;55625;47.072;22.192;2023-07-13T05:57:45;4.20;;;2.50;;
68633;SDS011;55625;47.072;22.192;2023-07-13T06:00:12;6.30;;;2.80;;
68633;SDS011;55625;47.072;22.192;2023-07-13T06:02:38;3.67;;;2.25;;
68633;SDS011;55625;47.072;22.192;2023-07-13T06:05:04;4.45;;;3.03;;
68633;SDS011;55625;47.072;22.192;2023-07-13T06:07:30;5.43;;;3.13;;
68633;SDS011;55625;47.072;22.192;2023-07-13T06:09:56;4.63;;;2.30;;
68633;SDS011;55625;47.072;22.192;2023-07-13T06:12:24;4.60;;;2.58;;
68633;SDS011;55625;47.072;22.192;2023-07-13T06:14:50;4.35;;;2.50;;
68633;SDS011;55625;47.072;22.192;2023-07-13T06:17:16;4.03;;;2.90;;
68633;SDS011;55625;47.072;22.192;2023-07-13T06:19:43;4.33;;;2.63;;
68633;SDS011;55625;47.072;22.192;2023-07-13T06:22:10;5.28;;;2.67;;
68633;SDS011;55625;47.072;22.192;2023-07-13T06:24:36;4.90;;;2.95;;
68633;SDS011;55625;47.072;22.192;2023-07-13T06:27:01;4.33;;;2.37;;
68633;SDS011;55625;47.072;22.192;2023-07-13T06:29:28;4.85;;;2.70;;
68633;SDS011;55625;47.072;22.192;2023-07-13T06:31:53;8.52;;;2.47;;
68633;SDS011;55625;47.072;22.192;2023-07-13T06:34:19;5.33;;;3.47;;
68633;SDS011;55625;47.072;22.192;2023-07-13T06:36:45;4.00;;;3.22;;
68633;SDS011;55625;47.072;22.192;2023-07-13T06:39:11;4.28;;;2.75;;
68633;SDS011;55625;47.072;22.192;2023-07-13T06:41:36;5.77;;;2.67;;
68633;SDS011;55625;47.072;22.192;2023-07-13T06:44:03;4.68;;;3.55;;
68633;SDS011;55625;47.072;22.192;2023-07-13T06:46:30;3.15;;;1.70;;
68633;SDS011;55625;47.072;22.192;2023-07-13T06:48:56;5.13;;;2.72;;
68633;SDS011;55625;47.072;22.192;2023-07-13T06:51:21;3.67;;;2.10;;
68633;SDS011;55625;47.072;22.192;2023-07-13T06:53:47;9.50;;;2.80;;
68633;SDS011;55625;47.072;22.192;2023-07-13T06:56:14;5.18;;;3.10;;
68633;SDS011;55625;47.072;22.192;2023-07-13T06:58:40;4.60;;;2.43;;
68633;SDS011;55625;47.072;22.192;2023-07-13T07:01:06;4.05;;;2.03;;
68633;SDS011;55625;47.072;22.192;2023-07-13T07:03:33;4.15;;;2.40;;
68633;SDS011;55625;47.072;22.192;2023-07-13T07:06:00;4.80;;;1.95;;
68633;SDS011;55625;47.072;22.192;2023-07-13T07:08:37;2.60;;;1.43;;
68633;SDS011;55625;47.072;22.192;2023-07-13T07:11:03;3.72;;;2.20;;
68633;SDS011;55625;47.072;22.192;2023-07-13T07:13:29;2.03;;;1.20;;
68633;SDS011;55625;47.072;22.192;2023-07-13T07:15:55;5.03;;;1.80;;
68633;SDS011;55625;47.072;22.192;2023-07-13T07:18:21;5.35;;;1.05;;
68633;SDS011;55625;47.072;22.192;2023-07-13T07:20:48;2.15;;;0.35;;
68633;SDS011;55625;47.072;22.192;2023-07-13T07:23:14;3.58;;;0.93;;
68633;SDS011;55625;47.072;22.192;2023-07-13T07:25:40;1.37;;;0.73;;
68633;SDS011;55625;47.072;22.192;2023-07-13T07:28:09;1.83;;;0.55;;
68633;SDS011;55625;47.072;22.192;2023-07-13T07:30:35;5.65;;;1.63;;
68633;SDS011;55625;47.072;22.192;2023-07-13T07:33:00;1.55;;;0.70;;
68633;SDS011;55625;47.072;22.192;2023-07-13T07:35:26;5.23;;;2.37;;
68633;SDS011;55625;47.072;22.192;2023-07-13T07:37:52;1.92;;;0.85;;
68633;SDS011;55625;47.072;22.192;2023-07-13T07:40:18;4.30;;;1.47;;
68633;SDS011;55625;47.072;22.192;2023-07-13T07:42:44;3.13;;;0.90;;
68633;SDS011;55625;47.072;22.192;2023-07-13T07:45:10;1.63;;;0.70;;
68633;SDS011;55625;47.072;22.192;2023-07-13T07:47:36;1.75;;;0.68;;
68633;SDS011;55625;47.072;22.192;2023-07-13T07:50:03;18.33;;;0.67;;
68633;SDS011;55625;47.072;22.192;2023-07-13T07:52:29;5.15;;;0.75;;
68633;SDS011;55625;47.072;22.192;2023-07-13T07:54:55;2.08;;;1.17;;
68633;SDS011;55625;47.072;22.192;2023-07-13T07:57:21;5.23;;;1.00;;
68633;SDS011;55625;47.072;22.192;2023-07-13T07:59:47;2.13;;;1.30;;
68633;SDS011;55625;47.072;22.192;2023-07-13T08:02:13;2.63;;;0.60;;
68633;SDS011;55625;47.072;22.192;2023-07-13T08:04:39;2.38;;;0.73;;
68633;SDS011;55625;47.072;22.192;2023-07-13T08:07:05;1.60;;;0.50;;
68633;SDS011;55625;47.072;22.192;2023-07-13T08:09:31;2.58;;;1.00;;
68633;SDS011;55625;47.072;22.192;2023-07-13T08:11:57;2.70;;;1.35;;
68633;SDS011;55625;47.072;22.192;2023-07-13T08:14:22;3.60;;;0.77;;
68633;SDS011;55625;47.072;22.192;2023-07-13T08:16:48;2.60;;;1.48;;
68633;SDS011;55625;47.072;22.192;2023-07-13T08:19:14;3.88;;;1.60;;
68633;SDS011;55625;47.072;22.192;2023-07-13T08:21:40;2.83;;;1.50;;
68633;SDS011;55625;47.072;22.192;2023-07-13T08:24:08;2.42;;;1.55;;
68633;SDS011;55625;47.072;22.192;2023-07-13T08:26:34;6.70;;;1.48;;
68633;SDS011;55625;47.072;22.192;2023-07-13T08:29:00;2.90;;;1.48;;
68633;SDS011;55625;47.072;22.192;2023-07-13T08:31:27;3.00;;;1.27;;
68633;SDS011;55625;47.072;22.192;2023-07-13T08:33:52;5.95;;;1.40;;
68633;SDS011;55625;47.072;22.192;2023-07-13T08:36:18;1.88;;;0.65;;
68633;SDS011;55625;47.072;22.192;2023-07-13T08:38:44;5.70;;;1.90;;
68633;SDS011;55625;47.072;22.192;2023-07-13T08:41:11;5.55;;;1.17;;
68633;SDS011;55625;47.072;22.192;2023-07-13T08:43:42;4.43;;;1.92;;
68633;SDS011;55625;47.072;22.192;2023-07-13T08:49:16;2.60;;;1.47;;
68633;SDS011;55625;47.072;22.192;2023-07-13T08:51:49;4.85;;;1.52;;
68633;SDS011;55625;47.072;22.192;2023-07-13T08:54:54;2.95;;;0.80;;
68633;SDS011;55625;47.072;22.192;2023-07-13T08:57:24;2.92;;;1.25;;
68633;SDS011;55625;47.072;22.192;2023-07-13T08:59:58;4.78;;;1.38;;
68633;SDS011;55625;47.072;22.192;2023-07-13T09:05:38;3.42;;;1.73;;
68633;SDS011;55625;47.072;22.192;2023-07-13T09:11:03;4.80;;;1.33;;
68633;SDS011;55625;47.072;22.192;2023-07-13T09:14:11;3.30;;;0.93;;
68633;SDS011;55625;47.072;22.192;2023-07-13T09:17:10;1.95;;;0.52;;
68633;SDS011;55625;47.072;22.192;2023-07-13T09:19:53;2.50;;;1.65;;
68633;SDS011;55625;47.072;22.192;2023-07-13T09:22:42;3.47;;;1.50;;
68633;SDS011;55625;47.072;22.192;2023-07-13T09:28:02;3.40;;;1.87;;
68633;SDS011;55625;47.072;22.192;2023-07-13T09:30:58;2.22;;;0.85;;
68633;SDS011;55625;47.072;22.192;2023-07-13T09:33:41;3.33;;;1.15;;
68633;SDS011;55625;47.072;22.192;2023-07-13T09:39:43;1.75;;;0.98;;
68633;SDS011;55625;47.072;22.192;2023-07-13T09:44:36;1.73;;;0.73;;
68633;SDS011;55625;47.072;22.192;2023-07-13T09:47:15;2.47;;;0.60;;
68633;SDS011;55625;47.072;22.192;2023-07-13T09:49:56;2.60;;;0.77;;
68633;SDS011;55625;47.072;22.192;2023-07-13T09:52:44;3.75;;;1.42;;
68633;SDS011;55625;47.072;22.192;2023-07-13T09:57:58;2.83;;;1.08;;
68633;SDS011;55625;47.072;22.192;2023-07-13T10:00:40;2.40;;;0.80;;
68633;SDS011;55625;47.072;22.192;2023-07-13T10:03:19;2.75;;;0.65;;
68633;SDS011;55625;47.072;22.192;2023-07-13T10:05:48;2.35;;;0.80;;
68633;SDS011;55625;47.072;22.192;2023-07-13T10:08:17;6.30;;;1.43;;
68633;SDS011;55625;47.072;22.192;2023-07-13T10:11:02;4.22;;;1.25;;
68633;SDS011;55625;47.072;22.192;2023-07-13T10:13:48;5.05;;;0.60;;
68633;SDS011;55625;47.072;22.192;2023-07-13T10:16:21;3.03;;;1.05;;
68633;SDS011;55625;47.072;22.192;2023-07-13T10:18:58;3.92;;;0.80;;
68633;SDS011;55625;47.072;22.192;2023-07-13T10:22:19;2.53;;;0.63;;
68633;SDS011;55625;47.072;22.192;2023-07-13T10:24:45;3.50;;;0.95;;
68633;SDS011;55625;47.072;22.192;2023-07-13T10:27:16;2.25;;;1.05;;
68633;SDS011;55625;47.072;22.192;2023-07-13T10:29:59;4.80;;;1.63;;
68633;SDS011;55625;47.072;22.192;2023-07-13T10:32:36;5.45;;;0.57;;
68633;SDS011;55625;47.072;22.192;2023-07-13T10:35:02;1.87;;;0.83;;
68633;SDS011;55625;47.072;22.192;2023-07-13T10:37:31;1.95;;;0.95;;
68633;SDS011;55625;47.072;22.192;2023-07-13T10:40:16;1.58;;;0.63;;
68633;SDS011;55625;47.072;22.192;2023-07-13T10:43:53;1.25;;;0.50;;
68633;SDS011;55625;47.072;22.192;2023-07-13T10:46:20;2.03;;;0.68;;
68633;SDS011;55625;47.072;22.192;2023-07-13T10:48:54;4.40;;;1.03;;
68633;SDS011;55625;47.072;22.192;2023-07-13T10:51:24;4.28;;;1.50;;
68633;SDS011;55625;47.072;22.192;2023-07-13T11:02:43;3.00;;;0.40;;
68633;SDS011;55625;47.072;22.192;2023-07-13T11:08:02;1.92;;;0.50;;
68633;SDS011;55625;47.072;22.192;2023-07-13T11:10:59;2.58;;;0.93;;
68633;SDS011;55625;47.072;22.192;2023-07-13T11:18:47;1.40;;;0.68;;
68633;SDS011;55625;47.072;22.192;2023-07-13T11:21:22;2.08;;;0.30;;
68633;SDS011;55625;47.072;22.192;2023-07-13T11:24:01;4.50;;;0.95;;
68633;SDS011;55625;47.072;22.192;2023-07-13T11:29:23;2.67;;;1.13;;
68633;SDS011;55625;47.072;22.192;2023-07-13T11:32:20;2.30;;;1.42;;
68633;SDS011;55625;47.072;22.192;2023-07-13T11:34:55;2.20;;;0.88;;
68633;SDS011;55625;47.072;22.192;2023-07-13T11:37:22;2.88;;;0.98;;
68633;SDS011;55625;47.072;22.192;2023-07-13T11:39:49;4.63;;;1.38;;
68633;SDS011;55625;47.072;22.192;2023-07-13T11:42:18;2.20;;;0.90;;
68633;SDS011;55625;47.072;22.192;2023-07-13T11:44:47;2.25;;;0.57;;
68633;SDS011;55625;47.072;22.192;2023-07-13T11:47:17;2.80;;;0.57;;
68633;SDS011;55625;47.072;22.192;2023-07-13T11:49:50;4.03;;;1.33;;
68633;SDS011;55625;47.072;22.192;2023-07-13T11:52:36;2.35;;;0.85;;
68633;SDS011;55625;47.072;22.192;2023-07-13T11:55:04;2.00;;;1.03;;
68633;SDS011;55625;47.072;22.192;2023-07-13T11:57:42;2.03;;;0.70;;
68633;SDS011;55625;47.072;22.192;2023-07-13T12:00:22;7.07;;;1.08;;
68633;SDS011;55625;47.072;22.192;2023-07-13T12:02:54;1.98;;;1.10;;
68633;SDS011;55625;47.072;22.192;2023-07-13T12:05:24;1.98;;;0.60;;
68633;SDS011;55625;47.072;22.192;2023-07-13T12:07:50;1.80;;;0.90;;
68633;SDS011;55625;47.072;22.192;2023-07-13T12:12:55;2.42;;;0.65;;
68633;SDS011;55625;47.072;22.192;2023-07-13T12:15:30;1.65;;;0.43;;
68633;SDS011;55625;47.072;22.192;2023-07-13T12:18:21;4.28;;;0.95;;
68633;SDS011;55625;47.072;22.192;2023-07-13T12:20:55;2.30;;;0.73;;
68633;SDS011;55625;47.072;22.192;2023-07-13T12:23:31;4.75;;;0.63;;
68633;SDS011;55625;47.072;22.192;2023-07-13T12:26:00;2.35;;;0.60;;
68633;SDS011;55625;47.072;22.192;2023-07-13T12:28:33;1.75;;;0.63;;
68633;SDS011;55625;47.072;22.192;2023-07-13T12:31:20;1.98;;;1.05;;
68633;SDS011;55625;47.072;22.192;2023-07-13T12:34:17;4.53;;;0.30;;
68633;SDS011;55625;47.072;22.192;2023-07-13T12:36:56;2.38;;;1.17;;
68633;SDS011;55625;47.072;22.192;2023-07-13T12:39:38;2.75;;;1.33;;
68633;SDS011;55625;47.072;22.192;2023-07-13T12:44:57;4.55;;;1.17;;
68633;SDS011;55625;47.072;22.192;2023-07-13T12:47:47;1.20;;;0.57;;
68633;SDS011;55625;47.072;22.192;2023-07-13T12:50:19;2.63;;;0.55;;
68633;SDS011;55625;47.072;22.192;2023-07-13T12:52:54;3.60;;;0.75;;
68633;SDS011;55625;47.072;22.192;2023-07-13T12:55:26;3.60;;;1.20;;
68633;SDS011;55625;47.072;22.192;2023-07-13T12:57:57;4.18;;;0.77;;
68633;SDS011;55625;47.072;22.192;2023-07-13T13:03:22;2.95;;;0.85;;
68633;SDS011;55625;47.072;22.192;2023-07-13T13:05:48;3.63;;;1.05;;
68633;SDS011;55625;47.072;22.192;2023-07-13T13:08:14;1.98;;;1.08;;
68633;SDS011;55625;47.072;22.192;2023-07-13T13:10:40;2.00;;;0.70;;
68633;SDS011;55625;47.072;22.192;2023-07-13T13:13:06;1.50;;;0.63;;
68633;SDS011;55625;47.072;22.192;2023-07-13T13:15:33;2.10;;;0.52;;
68633;SDS011;55625;47.072;22.192;2023-07-13T13:18:02;1.50;;;0.50;;
68633;SDS011;55625;47.072;22.192;2023-07-13T13:20:28;3.50;;;1.37;;
68633;SDS011;55625;47.072;22.192;2023-07-13T13:22:53;2.50;;;0.88;;
68633;SDS011;55625;47.072;22.192;2023-07-13T13:25:20;1.85;;;0.95;;
68633;SDS011;55625;47.072;22.192;2023-07-13T13:27:47;2.63;;;1.42;;
68633;SDS011;55625;47.072;22.192;2023-07-13T13:30:15;1.50;;;1.03;;
68633;SDS011;55625;47.072;22.192;2023-07-13T13:32:44;3.17;;;0.80;;
68633;SDS011;55625;47.072;22.192;2023-07-13T13:35:15;1.48;;;0.45;;
68633;SDS011;55625;47.072;22.192;2023-07-13T13:37:44;1.50;;;0.77;;
68633;SDS011;55625;47.072;22.192;2023-07-13T13:40:13;3.70;;;1.15;;
68633;SDS011;55625;47.072;22.192;2023-07-13T13:42:45;2.73;;;0.80;;
68633;SDS011;55625;47.072;22.192;2023-07-13T13:45:11;1.50;;;0.88;;
68633;SDS011;55625;47.072;22.192;2023-07-13T13:47:37;3.60;;;0.75;;
68633;SDS011;55625;47.072;22.192;2023-07-13T13:50:12;1.33;;;0.63;;
68633;SDS011;55625;47.072;22.192;2023-07-13T13:52:44;4.43;;;1.33;;
68633;SDS011;55625;47.072;22.192;2023-07-13T13:55:11;2.60;;;1.40;;
68633;SDS011;55625;47.072;22.192;2023-07-13T13:57:49;2.15;;;1.00;;
68633;SDS011;55625;47.072;22.192;2023-07-13T14:00:15;1.40;;;0.70;;
68633;SDS011;55625;47.072;22.192;2023-07-13T14:02:44;1.63;;;0.47;;
68633;SDS011;55625;47.072;22.192;2023-07-13T14:05:13;2.08;;;0.80;;
68633;SDS011;55625;47.072;22.192;2023-07-13T14:07:45;1.30;;;0.60;;
68633;SDS011;55625;47.072;22.192;2023-07-13T14:10:12;2.90;;;0.70;;
68633;SDS011;55625;47.072;22.192;2023-07-13T14:12:41;2.17;;;1.10;;
68633;SDS011;55625;47.072;22.192;2023-07-13T14:15:30;2.33;;;1.10;;
68633;SDS011;55625;47.072;22.192;2023-07-13T14:17:59;1.37;;;0.20;;
68633;SDS011;55625;47.072;22.192;2023-07-13T14:20:25;3.28;;;1.35;;
68633;SDS011;55625;47.072;22.192;2023-07-13T14:22:51;3.00;;;0.68;;
68633;SDS011;55625;47.072;22.192;2023-07-13T14:25:18;2.38;;;0.85;;
68633;SDS011;55625;47.072;22.192;2023-07-13T14:27:46;1.40;;;0.52;;
68633;SDS011;55625;47.072;22.192;2023-07-13T14:30:19;2.67;;;0.47;;
68633;SDS011;55625;47.072;22.192;2023-07-13T14:32:47;2.17;;;0.55;;
68633;SDS011;55625;47.072;22.192;2023-07-13T14:35:14;3.45;;;0.57;;
68633;SDS011;55625;47.072;22.192;2023-07-13T14:37:43;1.70;;;0.63;;
68633;SDS011;55625;47.072;22.192;2023-07-13T14:42:50;3.37;;;0.53;;
68633;SDS011;55625;47.072;22.192;2023-07-13T14:45:17;5.97;;;1.02;;
68633;SDS011;55625;47.072;22.192;2023-07-13T14:47:45;1.98;;;0.75;;
68633;SDS011;55625;47.072;22.192;2023-07-13T14:50:19;2.53;;;1.00;;
68633;SDS011;55625;47.072;22.192;2023-07-13T14:53:00;2.50;;;0.50;;
68633;SDS011;55625;47.072;22.192;2023-07-13T14:55:25;2.05;;;1.00;;
68633;SDS011;55625;47.072;22.192;2023-07-13T14:57:52;2.75;;;0.73;;
68633;SDS011;55625;47.072;22.192;2023-07-13T15:00:18;1.98;;;1.25;;
68633;SDS011;55625;47.072;22.192;2023-07-13T15:02:55;2.57;;;1.63;;
68633;SDS011;55625;47.072;22.192;2023-07-13T15:05:28;4.57;;;1.10;;
68633;SDS011;55625;47.072;22.192;2023-07-13T15:07:57;2.80;;;1.35;;
68633;SDS011;55625;47.072;22.192;2023-07-13T15:10:27;2.20;;;1.17;;
68633;SDS011;55625;47.072;22.192;2023-07-13T15:13:00;3.72;;;1.17;;
68633;SDS011;55625;47.072;22.192;2023-07-13T15:15:40;1.67;;;0.67;;
68633;SDS011;55625;47.072;22.192;2023-07-13T15:18:09;2.40;;;0.90;;
68633;SDS011;55625;47.072;22.192;2023-07-13T15:20:39;2.58;;;0.93;;
68633;SDS011;55625;47.072;22.192;2023-07-13T15:23:05;4.18;;;0.88;;
68633;SDS011;55625;47.072;22.192;2023-07-13T15:25:34;4.30;;;0.68;;
68633;SDS011;55625;47.072;22.192;2023-07-13T15:28:00;2.20;;;0.40;;
68633;SDS011;55625;47.072;22.192;2023-07-13T15:30:27;2.17;;;0.95;;
68633;SDS011;55625;47.072;22.192;2023-07-13T15:33:00;1.13;;;0.40;;
68633;SDS011;55625;47.072;22.192;2023-07-13T15:35:39;1.60;;;0.55;;
68633;SDS011;55625;47.072;22.192;2023-07-13T15:38:25;4.93;;;0.90;;
68633;SDS011;55625;47.072;22.192;2023-07-13T15:40:54;2.20;;;1.38;;
68633;SDS011;55625;47.072;22.192;2023-07-13T15:43:21;3.35;;;1.27;;
68633;SDS011;55625;47.072;22.192;2023-07-13T15:45:48;2.22;;;0.63;;